sensor_id;sensor_type;location;lat;lon;timestamp;temperature;humidity
63407;SHT31;49543;45.892;10.838;2023-08-24T07:53:24;31.40;67.22
63407;SHT31;49543;45.892;10.838;2023-08-24T09:42:00;34.93;59.32
63407;SHT31;49543;45.892;10.838;2023-08-24T09:44:29;35.04;58.94
63407;SHT31;49543;45.892;10.838;2023-08-24T09:46:55;35.14;58.22
63407;SHT31;49543;45.892;10.838;2023-08-24T09:49:20;35.19;57.37
63407;SHT31;49543;45.892;10.838;2023-08-24T09:51:48;35.21;57.58
63407;SHT31;49543;45.892;10.838;2023-08-24T09:54:15;35.26;57.78
63407;SHT31;49543;45.892;10.838;2023-08-24T09:56:42;35.30;57.37
63407;SHT31;49543;45.892;10.838;2023-08-24T09:59:13;35.34;57.03
63407;SHT31;49543;45.892;10.838;2023-08-24T10:01:44;35.44;57.02
63407;SHT31;49543;45.892;10.838;2023-08-24T10:04:10;35.53;56.33
63407;SHT31;49543;45.892;10.838;2023-08-24T10:06:39;35.57;61.57
63407;SHT31;49543;45.892;10.838;2023-08-24T10:09:08;35.44;63.16
63407;SHT31;49543;45.892;10.838;2023-08-24T10:11:37;35.30;61.94
63407;SHT31;49543;45.892;10.838;2023-08-24T10:14:15;35.25;63.42
63407;SHT31;49543;45.892;10.838;2023-08-24T10:16:43;35.16;64.19
63407;SHT31;49543;45.892;10.838;2023-08-24T10:19:09;35.09;60.36
63407;SHT31;49543;45.892;10.838;2023-08-24T10:21:37;35.09;59.82
63407;SHT31;49543;45.892;10.838;2023-08-24T10:24:02;35.25;58.40
63407;SHT31;49543;45.892;10.838;2023-08-24T10:26:28;35.31;57.73
63407;SHT31;49543;45.892;10.838;2023-08-24T10:28:55;35.47;57.69
63407;SHT31;49543;45.892;10.838;2023-08-24T10:31:20;35.57;58.03
63407;SHT31;49543;45.892;10.838;2023-08-24T10:33:47;35.57;57.96
63407;SHT31;49543;45.892;10.838;2023-08-24T10:36:13;35.51;58.23
63407;SHT31;49543;45.892;10.838;2023-08-24T10:38:42;35.43;57.74
63407;SHT31;49543;45.892;10.838;2023-08-24T10:41:08;35.27;58.17
63407;SHT31;49543;45.892;10.838;2023-08-24T10:43:37;35.25;58.83
63407;SHT31;49543;45.892;10.838;2023-08-24T10:46:03;35.20;58.55
63407;SHT31;49543;45.892;10.838;2023-08-24T10:48:32;35.16;58.90
63407;SHT31;49543;45.892;10.838;2023-08-24T10:51:16;35.31;58.11
63407;SHT31;49543;45.892;10.838;2023-08-24T10:54:01;35.48;57.53
63407;SHT31;49543;45.892;10.838;2023-08-24T10:56:38;35.68;57.83
63407;SHT31;49543;45.892;10.838;2023-08-24T10:59:14;35.81;57.08
63407;SHT31;49543;45.892;10.838;2023-08-24T11:01:56;35.86;56.67
63407;SHT31;49543;45.892;10.838;2023-08-24T11:04:22;35.94;56.49
63407;SHT31;49543;45.892;10.838;2023-08-24T11:06:55;35.88;57.27
63407;SHT31;49543;45.892;10.838;2023-08-24T11:09:22;35.77;57.39
63407;SHT31;49543;45.892;10.838;2023-08-24T11:12:02;35.65;58.46
63407;SHT31;49543;45.892;10.838;2023-08-24T11:14:29;35.54;59.26
63407;SHT31;49543;45.892;10.838;2023-08-24T11:17:17;35.47;59.61
63407;SHT31;49543;45.892;10.838;2023-08-24T11:19:50;35.37;60.73
63407;SHT31;49543;45.892;10.838;2023-08-24T11:22:19;35.27;61.45
63407;SHT31;49543;45.892;10.838;2023-08-24T11:24:45;35.03;61.55
63407;SHT31;49543;45.892;10.838;2023-08-24T11:27:10;34.81;62.39
63407;SHT31;49543;45.892;10.838;2023-08-24T11:29:36;34.74;61.55
63407;SHT31;49543;45.892;10.838;2023-08-24T11:32:02;34.95;61.21
63407;SHT31;49543;45.892;10.838;2023-08-24T11:34:28;35.26;61.89
63407;SHT31;49543;45.892;10.838;2023-08-24T11:36:54;35.59;59.20
63407;SHT31;49543;45.892;10.838;2023-08-24T11:39:22;35.92;59.76
63407;SHT31;49543;45.892;10.838;2023-08-24T11:42:02;36.33;58.32
63407;SHT31;49543;45.892;10.838;2023-08-24T11:44:30;36.66;57.82
63407;SHT31;49543;45.892;10.838;2023-08-24T16:09:43;34.17;63.10
63407;SHT31;49543;45.892;10.838;2023-08-24T16:12:08;34.18;63.11
63407;SHT31;49543;45.892;10.838;2023-08-24T16:14:33;34.16;61.66
63407;SHT31;49543;45.892;10.838;2023-08-24T16:16:59;34.07;62.96
63407;SHT31;49543;45.892;10.838;2023-08-24T16:19:24;34.01;62.95
63407;SHT31;49543;45.892;10.838;2023-08-24T16:21:50;34.00;62.55
63407;SHT31;49543;45.892;10.838;2023-08-24T16:24:15;34.07;62.24
63407;SHT31;49543;45.892;10.838;2023-08-24T16:26:41;34.04;61.88
63407;SHT31;49543;45.892;10.838;2023-08-24T16:29:07;34.00;62.46
63407;SHT31;49543;45.892;10.838;2023-08-24T16:31:32;33.99;62.24
63407;SHT31;49543;45.892;10.838;2023-08-24T16:34:00;33.96;62.19
63407;SHT31;49543;45.892;10.838;2023-08-24T16:36:26;33.93;61.31
63407;SHT31;49543;45.892;10.838;2023-08-24T16:38:51;33.93;61.43
63407;SHT31;49543;45.892;10.838;2023-08-24T16:41:17;33.94;61.56
63407;SHT31;49543;45.892;10.838;2023-08-24T16:43:42;33.96;61.86
63407;SHT31;49543;45.892;10.838;2023-08-24T16:46:07;33.97;61.86
63407;SHT31;49543;45.892;10.838;2023-08-24T16:48:33;34.03;62.36
63407;SHT31;49543;45.892;10.838;2023-08-24T16:50:58;33.99;62.11
63407;SHT31;49543;45.892;10.838;2023-08-24T16:53:24;33.99;62.31
63407;SHT31;49543;45.892;10.838;2023-08-24T16:55:50;34.03;62.02
63407;SHT31;49543;45.892;10.838;2023-08-24T16:58:16;34.01;61.59
63407;SHT31;49543;45.892;10.838;2023-08-24T17:00:42;34.01;61.97
63407;SHT31;49543;45.892;10.838;2023-08-24T17:03:07;34.04;62.60
63407;SHT31;49543;45.892;10.838;2023-08-24T17:05:33;34.00;62.84
63407;SHT31;49543;45.892;10.838;2023-08-24T17:10:29;33.97;63.37
63407;SHT31;49543;45.892;10.838;2023-08-24T17:12:56;33.93;63.47
63407;SHT31;49543;45.892;10.838;2023-08-24T17:15:21;33.85;63.27
63407;SHT31;49543;45.892;10.838;2023-08-24T17:17:47;33.77;63.43
63407;SHT31;49543;45.892;10.838;2023-08-24T17:20:12;33.74;63.21
63407;SHT31;49543;45.892;10.838;2023-08-24T17:22:37;33.72;63.22
63407;SHT31;49543;45.892;10.838;2023-08-24T17:25:03;33.70;62.77
63407;SHT31;49543;45.892;10.838;2023-08-24T17:27:29;33.68;62.80
63407;SHT31;49543;45.892;10.838;2023-08-24T17:29:55;33.63;63.20
63407;SHT31;49543;45.892;10.838;2023-08-24T17:32:20;33.59;63.54
63407;SHT31;49543;45.892;10.838;2023-08-24T17:34:51;33.55;62.17
63407;SHT31;49543;45.892;10.838;2023-08-24T17:37:16;33.48;62.61
63407;SHT31;49543;45.892;10.838;2023-08-24T19:21:45;32.35;62.87
63407;SHT31;49543;45.892;10.838;2023-08-24T19:24:18;32.32;63.81
63407;SHT31;49543;45.892;10.838;2023-08-24T19:26:44;32.25;64.52
63407;SHT31;49543;45.892;10.838;2023-08-24T19:29:09;32.18;64.52
63407;SHT31;49543;45.892;10.838;2023-08-24T19:31:34;32.16;64.50
63407;SHT31;49543;45.892;10.838;2023-08-24T19:34:00;32.08;65.01
63407;SHT31;49543;45.892;10.838;2023-08-24T19:36:25;31.98;65.26
63407;SHT31;49543;45.892;10.838;2023-08-24T19:38:51;31.89;65.75
63407;SHT31;49543;45.892;10.838;2023-08-24T19:41:16;31.80;66.23
63407;SHT31;49543;45.892;10.838;2023-08-24T19:43:42;31.77;66.27
63407;SHT31;49543;45.892;10.838;2023-08-24T19:46:08;31.74;65.84
63407;SHT31;49543;45.892;10.838;2023-08-24T19:48:35;31.71;65.49
63407;SHT31;49543;45.892;10.838;2023-08-24T19:51:00;31.66;65.57
63407;SHT31;49543;45.892;10.838;2023-08-24T19:53:26;31.67;65.87
63407;SHT31;49543;45.892;10.838;2023-08-24T19:55:52;31.61;66.25
63407;SHT31;49543;45.892;10.838;2023-08-24T19:58:19;31.53;65.97
63407;SHT31;49543;45.892;10.838;2023-08-24T20:00:44;31.50;65.96
63407;SHT31;49543;45.892;10.838;2023-08-24T20:03:10;31.43;66.01
63407;SHT31;49543;45.892;10.838;2023-08-24T20:05:36;31.39;66.29
63407;SHT31;49543;45.892;10.838;2023-08-24T20:08:01;31.33;66.62
63407;SHT31;49543;45.892;10.838;2023-08-24T20:10:29;31.30;66.85
63407;SHT31;49543;45.892;10.838;2023-08-24T20:12:54;31.27;67.41
63407;SHT31;49543;45.892;10.838;2023-08-24T20:15:19;31.23;67.44
63407;SHT31;49543;45.892;10.838;2023-08-24T20:17:46;31.21;67.31
63407;SHT31;49543;45.892;10.838;2023-08-24T20:20:14;31.21;67.23
63407;SHT31;49543;45.892;10.838;2023-08-24T20:22:41;31.16;67.53
63407;SHT31;49543;45.892;10.838;2023-08-24T20:25:07;31.11;67.31
63407;SHT31;49543;45.892;10.838;2023-08-24T20:27:34;31.11;67.13
63407;SHT31;49543;45.892;10.838;2023-08-24T20:29:59;31.08;67.15
63407;SHT31;49543;45.892;10.838;2023-08-24T20:32:25;31.06;67.30
63407;SHT31;49543;45.892;10.838;2023-08-24T20:34:50;31.02;67.07
63407;SHT31;49543;45.892;10.838;2023-08-24T20:37:16;31.03;67.15
63407;SHT31;49543;45.892;10.838;2023-08-24T20:39:41;31.02;67.26
63407;SHT31;49543;45.892;10.838;2023-08-24T20:42:14;31.00;67.55
63407;SHT31;49543;45.892;10.838;2023-08-24T20:44:43;30.98;67.94
63407;SHT31;49543;45.892;10.838;2023-08-24T20:47:09;30.98;67.55
63407;SHT31;49543;45.892;10.838;2023-08-24T20:49:35;30.86;67.57
63407;SHT31;49543;45.892;10.838;2023-08-24T20:52:01;30.84;67.44
63407;SHT31;49543;45.892;10.838;2023-08-24T20:54:26;30.81;67.61
63407;SHT31;49543;45.892;10.838;2023-08-24T20:56:53;30.77;68.08
63407;SHT31;49543;45.892;10.838;2023-08-24T20:59:19;30.74;67.91
63407;SHT31;49543;45.892;10.838;2023-08-24T21:01:45;30.67;68.23
63407;SHT31;49543;45.892;10.838;2023-08-24T21:04:11;30.51;68.42
63407;SHT31;49543;45.892;10.838;2023-08-24T21:06:36;30.50;68.35
63407;SHT31;49543;45.892;10.838;2023-08-24T21:09:02;30.51;68.85
63407;SHT31;49543;45.892;10.838;2023-08-24T21:11:27;30.47;69.33
63407;SHT31;49543;45.892;10.838;2023-08-24T21:13:53;30.51;69.29
63407;SHT31;49543;45.892;10.838;2023-08-24T21:16:20;30.48;69.51
63407;SHT31;49543;45.892;10.838;2023-08-24T21:18:46;30.53;69.49
63407;SHT31;49543;45.892;10.838;2023-08-24T21:21:12;30.53;69.20
63407;SHT31;49543;45.892;10.838;2023-08-24T21:23:37;30.53;68.62
63407;SHT31;49543;45.892;10.838;2023-08-24T21:26:02;30.53;68.67
63407;SHT31;49543;45.892;10.838;2023-08-24T21:28:28;30.51;68.98
63407;SHT31;49543;45.892;10.838;2023-08-24T21:30:59;30.48;69.17
63407;SHT31;49543;45.892;10.838;2023-08-24T21:33:26;30.48;69.16
63407;SHT31;49543;45.892;10.838;2023-08-24T21:35:52;30.44;69.15
63407;SHT31;49543;45.892;10.838;2023-08-24T21:38:17;30.44;69.16
63407;SHT31;49543;45.892;10.838;2023-08-24T21:40:42;30.44;69.06
63407;SHT31;49543;45.892;10.838;2023-08-24T21:43:08;30.40;69.00
63407;SHT31;49543;45.892;10.838;2023-08-24T21:45:33;30.31;69.35
63407;SHT31;49543;45.892;10.838;2023-08-24T21:47:59;30.31;69.32
63407;SHT31;49543;45.892;10.838;2023-08-24T21:50:24;30.29;69.03
63407;SHT31;49543;45.892;10.838;2023-08-24T21:52:53;30.26;68.86
63407;SHT31;49543;45.892;10.838;2023-08-24T21:55:19;30.23;69.11
63407;SHT31;49543;45.892;10.838;2023-08-24T21:57:45;30.24;68.99
63407;SHT31;49543;45.892;10.838;2023-08-24T22:00:10;30.20;69.05
63407;SHT31;49543;45.892;10.838;2023-08-24T22:02:39;30.22;69.16
63407;SHT31;49543;45.892;10.838;2023-08-24T22:05:06;30.20;69.61
63407;SHT31;49543;45.892;10.838;2023-08-24T22:07:32;30.16;69.97
63407;SHT31;49543;45.892;10.838;2023-08-24T22:09:58;30.12;69.97
63407;SHT31;49543;45.892;10.838;2023-08-24T22:12:23;30.06;69.83
63407;SHT31;49543;45.892;10.838;2023-08-24T22:14:50;30.09;69.71
63407;SHT31;49543;45.892;10.838;2023-08-24T22:17:16;30.09;69.72
63407;SHT31;49543;45.892;10.838;2023-08-24T22:19:41;30.12;69.66
